Time,TemperatureF,DewpointF,PressureIn,WindDirection,WindDirectionDegrees,WindSpeedMPH,WindSpeedGustMPH,Humidity,HourlyPrecipIn,Conditions,Clouds,dailyrainin,SoftwareType,DateUTC
2013-01-24 00:01:00,12.8,10.0,30.13,NNE,24,1.0,-999.0,88,-99.99,,,0.00,weatherlink.com 1.10,2013-01-24 05:01:00,
2013-01-24 00:15:00,12.8,10.0,30.14,North,5,0.0,-999.0,88,-99.99,,,0.00,weatherlink.com 1.10,2013-01-24 05:15:00,
2013-01-24 00:31:00,12.9,10.0,30.14,North,5,4.0,-999.0,88,-99.99,,,0.00,weatherlink.com 1.10,2013-01-24 05:31:00,
2013-01-24 00:46:00,13.1,10.0,30.15,NNW,331,1.0,-999.0,88,-99.99,,,0.00,weatherlink.com 1.10,2013-01-24 05:46:00,
2013-01-24 01:01:00,13.1,10.0,30.16,ENE,61,3.0,-999.0,88,-99.99,,,0.00,weatherlink.com 1.10,2013-01-24 06:01:00,
2013-01-24 01:16:00,13.1,10.0,30.16,ENE,59,4.0,-999.0,88,-99.99,,,0.00,weatherlink.com 1.10,2013-01-24 06:16:00,
2013-01-24 01:31:00,12.8,10.0,30.18,ENE,69,3.0,-999.0,87,-99.99,,,0.00,weatherlink.com 1.10,2013-01-24 06:31:00,
2013-01-24 01:46:00,12.7,9.0,30.19,ENE,62,4.0,-999.0,86,-99.99,,,0.00,weatherlink.com 1.10,2013-01-24 06:46:00,
2013-01-24 02:01:00,12.5,9.0,30.20,NE,52,3.0,-999.0,86,-99.99,,,0.00,weatherlink.com 1.10,2013-01-24 07:01:00,
2013-01-24 02:16:00,12.1,9.0,30.21,NE,51,0.0,-999.0,86,-99.99,,,0.00,weatherlink.com 1.10,2013-01-24 07:16:00,
2013-01-24 02:31:00,11.4,8.0,30.23,NNE,28,3.0,-999.0,87,-99.99,,,0.00,weatherlink.com 1.10,2013-01-24 07:31:00,
2013-01-24 02:46:00,10.7,8.0,30.24,NE,37,0.0,-999.0,87,-99.99,,,0.00,weatherlink.com 1.10,2013-01-24 07:46:00,
2013-01-24 03:01:00,10.2,7.0,30.25,NE,45,1.0,-999.0,87,-99.99,,,0.00,weatherlink.com 1.10,2013-01-24 08:01:00,
2013-01-24 03:16:00,9.6,7.0,30.27,NE,55,0.0,-999.0,87,-99.99,,,0.00,weatherlink.com 1.10,2013-01-24 08:16:00,
2013-01-24 03:31:00,9.2,6.0,30.28,NE,40,2.0,-999.0,87,-99.99,,,0.00,weatherlink.com 1.10,2013-01-24 08:31:00,
2013-01-24 03:46:00,8.8,6.0,30.29,NE,40,0.0,-999.0,88,-99.99,,,0.00,weatherlink.com 1.10,2013-01-24 08:46:00,
2013-01-24 04:01:00,9.0,6.0,30.30,NE,40,2.0,-999.0,88,-99.99,,,0.00,weatherlink.com 1.10,2013-01-24 09:01:00,
2013-01-24 04:16:00,9.1,6.0,30.31,NNE,30,1.0,-999.0,88,-99.99,,,0.00,weatherlink.com 1.10,2013-01-24 09:16:00,
2013-01-24 04:31:00,9.0,6.0,30.32,NNE,31,2.0,-999.0,88,-99.99,,,0.00,weatherlink.com 1.10,2013-01-24 09:31:00,
2013-01-24 04:46:00,8.4,5.0,30.33,NE,51,3.0,-999.0,87,-99.99,,,0.00,weatherlink.com 1.10,2013-01-24 09:46:00,
2013-01-24 05:01:00,8.0,5.0,30.35,North,9,0.0,-999.0,88,-99.99,,,0.00,weatherlink.com 1.10,2013-01-24 10:01:00,
2013-01-24 05:17:00,7.4,4.0,30.36,NE,46,0.0,-999.0,87,-99.99,,,0.00,weatherlink.com 1.10,2013-01-24 10:17:00,
2013-01-24 05:32:00,7.2,4.0,30.37,NNE,33,0.0,-999.0,88,-99.99,,,0.00,weatherlink.com 1.10,2013-01-24 10:32:00,
2013-01-24 05:47:00,6.9,4.0,30.39,North,5,1.0,-999.0,87,-99.99,,,0.00,weatherlink.com 1.10,2013-01-24 10:47:00,
2013-01-24 06:02:00,7.2,4.0,30.39,NNE,28,4.0,-999.0,88,-99.99,,,0.00,weatherlink.com 1.10,2013-01-24 11:02:00,
2013-01-24 06:17:00,7.3,4.0,30.40,NE,40,2.0,-999.0,87,-99.99,,,0.00,weatherlink.com 1.10,2013-01-24 11:17:00,
2013-01-24 06:32:00,7.8,5.0,30.41,NNE,30,3.0,-999.0,87,-99.99,,,0.00,weatherlink.com 1.10,2013-01-24 11:32:00,
2013-01-24 06:47:00,7.5,4.0,30.43,NE,44,3.0,-999.0,86,-99.99,,,0.00,weatherlink.com 1.10,2013-01-24 11:47:00,
2013-01-24 07:02:00,7.1,4.0,30.45,NNW,333,1.0,-999.0,86,-99.99,,,0.00,weatherlink.com 1.10,2013-01-24 12:02:00,
2013-01-24 07:17:00,6.6,3.0,30.46,NNE,22,1.0,-999.0,86,-99.99,,,0.00,weatherlink.com 1.10,2013-01-24 12:17:00,
2013-01-24 07:32:00,6.1,3.0,30.47,NNE,30,2.0,-999.0,86,-99.99,,,0.00,weatherlink.com 1.10,2013-01-24 12:32:00,
2013-01-24 07:47:00,5.7,2.0,30.48,NNE,26,3.0,-999.0,86,-99.99,,,0.00,weatherlink.com 1.10,2013-01-24 12:47:00,
2013-01-24 08:02:00,5.4,2.0,30.49,North,5,1.0,-999.0,86,-99.99,,,0.00,weatherlink.com 1.10,2013-01-24 13:02:00,
2013-01-24 08:17:00,5.4,2.0,30.49,NE,44,2.0,-999.0,86,-99.99,,,0.00,weatherlink.com 1.10,2013-01-24 13:17:00,
2013-01-24 08:32:00,5.9,3.0,30.50,NE,39,1.0,-999.0,86,-99.99,,,0.00,weatherlink.com 1.10,2013-01-24 13:32:00,
2013-01-24 08:47:00,6.4,3.0,30.50,ENE,74,3.0,-999.0,86,-99.99,,,0.00,weatherlink.com 1.10,2013-01-24 13:47:00,
2013-01-24 09:02:00,7.2,4.0,30.51,NE,51,2.0,-999.0,85,-99.99,,,0.00,weatherlink.com 1.10,2013-01-24 14:02:00,
2013-01-24 09:17:00,7.7,4.0,30.52,NE,55,3.0,-999.0,85,-99.99,,,0.00,weatherlink.com 1.10,2013-01-24 14:17:00,
2013-01-24 09:32:00,8.4,5.0,30.54,NE,34,1.0,-999.0,84,-99.99,,,0.00,weatherlink.com 1.10,2013-01-24 14:32:00,
2013-01-24 09:47:00,8.9,5.0,30.55,ENE,65,1.0,-999.0,82,-99.99,,,0.00,weatherlink.com 1.10,2013-01-24 14:47:00,
2013-01-24 10:02:00,9.7,5.0,30.57,ENE,62,6.0,-999.0,81,-99.99,,,0.00,weatherlink.com 1.10,2013-01-24 15:02:00,
2013-01-24 10:17:00,10.2,5.0,30.57,ENE,74,3.0,-999.0,80,-99.99,,,0.00,weatherlink.com 1.10,2013-01-24 15:17:00,
2013-01-24 10:32:00,11.0,5.0,30.58,ENE,72,4.0,-999.0,78,-99.99,,,0.00,weatherlink.com 1.10,2013-01-24 15:32:00,
2013-01-24 10:47:00,11.4,6.0,30.59,NE,47,6.0,-999.0,77,-99.99,,,0.00,weatherlink.com 1.10,2013-01-24 15:47:00,
2013-01-24 11:03:00,11.3,5.0,30.60,NE,42,3.0,-999.0,75,-99.99,,,0.00,weatherlink.com 1.10,2013-01-24 16:03:00,
2013-01-24 11:18:00,11.9,5.0,30.60,NE,51,3.0,-999.0,75,-99.99,,,0.00,weatherlink.com 1.10,2013-01-24 16:18:00,
2013-01-24 11:33:00,12.4,6.0,30.61,NNE,26,5.0,-999.0,74,-99.99,,,0.00,weatherlink.com 1.10,2013-01-24 16:33:00,
2013-01-24 11:48:00,13.3,6.0,30.60,NE,42,4.0,-999.0,71,-99.99,,,0.00,weatherlink.com 1.10,2013-01-24 16:48:00,
2013-01-24 12:03:00,14.6,6.0,30.59,East,82,2.0,-999.0,70,-99.99,,,0.00,weatherlink.com 1.10,2013-01-24 17:03:00,
2013-01-24 12:18:00,14.8,6.0,30.59,NE,38,1.0,-999.0,68,-99.99,,,0.00,weatherlink.com 1.10,2013-01-24 17:18:00,
2013-01-24 12:33:00,15.1,5.0,30.58,North,5,4.0,-999.0,65,-99.99,,,0.00,weatherlink.com 1.10,2013-01-24 17:33:00,
2013-01-24 12:48:00,15.2,4.0,30.57,NW,304,6.0,-999.0,61,-99.99,,,0.00,weatherlink.com 1.10,2013-01-24 17:48:00,
2013-01-24 13:03:00,16.1,3.0,30.58,NNE,13,3.0,-999.0,57,-99.99,,,0.00,weatherlink.com 1.10,2013-01-24 18:03:00,
2013-01-24 13:18:00,16.6,3.0,30.58,ENE,67,3.0,-999.0,54,-99.99,,,0.00,weatherlink.com 1.10,2013-01-24 18:18:00,
2013-01-24 13:33:00,17.0,3.0,30.58,NE,44,2.0,-999.0,55,-99.99,,,0.00,weatherlink.com 1.10,2013-01-24 18:33:00,
2013-01-24 13:48:00,16.7,1.0,30.57,NE,53,1.0,-999.0,51,-99.99,,,0.00,weatherlink.com 1.10,2013-01-24 18:48:00,
2013-01-24 14:03:00,17.0,1.0,30.58,NNE,27,1.0,-999.0,50,-99.99,,,0.00,weatherlink.com 1.10,2013-01-24 19:03:00,
2013-01-24 14:18:00,17.3,2.0,30.58,NNE,17,2.0,-999.0,50,-99.99,,,0.00,weatherlink.com 1.10,2013-01-24 19:18:00,
2013-01-24 14:33:00,17.6,2.0,30.57,WNW,287,1.0,-999.0,50,-99.99,,,0.00,weatherlink.com 1.10,2013-01-24 19:33:00,
2013-01-24 14:48:00,17.2,0.0,30.57,WNW,296,2.0,-999.0,46,-99.99,,,0.00,weatherlink.com 1.10,2013-01-24 19:48:00,
2013-01-24 15:03:00,17.0,0.0,30.57,NW,308,1.0,-999.0,47,-99.99,,,0.00,weatherlink.com 1.10,2013-01-24 20:03:00,
2013-01-24 15:18:00,16.9,1.0,30.57,NNW,332,3.0,-999.0,50,-99.99,,,0.00,weatherlink.com 1.10,2013-01-24 20:18:00,
2013-01-24 15:33:00,16.8,1.0,30.57,WNW,302,5.0,-999.0,50,-99.99,,,0.00,weatherlink.com 1.10,2013-01-24 20:33:00,
2013-01-24 15:40:00,-999.0,-99.9,0.00,North,-999,-999.0,-999.0,-999,-99.99,,,0.00,weatherlink.com 1.10,2013-01-24 20:40:00,
2013-01-24 15:55:00,-999.0,-99.9,30.57,North,-999,-999.0,-999.0,-999,-99.99,,,0.00,weatherlink.com 1.10,2013-01-24 20:55:00,
2013-01-24 16:10:00,16.6,1.0,30.58,North,11,1.0,-999.0,51,-99.99,,,0.00,weatherlink.com 1.10,2013-01-24 21:10:00,
2013-01-24 16:25:00,16.6,1.0,30.58,WNW,299,2.0,-999.0,50,-99.99,,,0.00,weatherlink.com 1.10,2013-01-24 21:25:00,
2013-01-24 16:40:00,15.8,1.0,30.58,North,9,2.0,-999.0,51,-99.99,,,0.00,weatherlink.com 1.10,2013-01-24 21:40:00,
2013-01-24 16:55:00,15.3,0.0,30.58,North,355,0.0,-999.0,52,-99.99,,,0.00,weatherlink.com 1.10,2013-01-24 21:55:00,
2013-01-24 17:10:00,14.7,0.0,30.58,NE,38,0.0,-999.0,52,-99.99,,,0.00,weatherlink.com 1.10,2013-01-24 22:10:00,
2013-01-24 17:25:00,14.2,0.0,30.58,NE,38,0.0,-999.0,54,-99.99,,,0.00,weatherlink.com 1.10,2013-01-24 22:25:00,
2013-01-24 17:40:00,13.6,0.0,30.58,NE,38,0.0,-999.0,56,-99.99,,,0.00,weatherlink.com 1.10,2013-01-24 22:40:00,
2013-01-24 17:55:00,13.0,0.0,30.58,NE,38,1.0,-999.0,57,-99.99,,,0.00,weatherlink.com 1.10,2013-01-24 22:55:00,
2013-01-24 18:10:00,12.3,0.0,30.58,NE,38,0.0,-999.0,58,-99.99,,,0.00,weatherlink.com 1.10,2013-01-24 23:10:00,
2013-01-24 18:25:00,11.8,0.0,30.58,NE,38,0.0,-999.0,59,-99.99,,,0.00,weatherlink.com 1.10,2013-01-24 23:25:00,
2013-01-24 18:40:00,11.2,0.0,30.58,NE,38,0.0,-999.0,60,-99.99,,,0.00,weatherlink.com 1.10,2013-01-24 23:40:00,
2013-01-24 18:55:00,10.7,0.0,30.59,NE,38,0.0,-999.0,61,-99.99,,,0.00,weatherlink.com 1.10,2013-01-24 23:55:00,
2013-01-24 19:10:00,10.3,-1.0,30.58,NE,38,0.0,-999.0,61,-99.99,,,0.00,weatherlink.com 1.10,2013-01-25 00:10:00,
2013-01-24 19:25:00,9.7,-1.0,30.58,NE,38,0.0,-999.0,63,-99.99,,,0.00,weatherlink.com 1.10,2013-01-25 00:25:00,
2013-01-24 19:40:00,9.1,0.0,30.57,NE,38,0.0,-999.0,66,-99.99,,,0.00,weatherlink.com 1.10,2013-01-25 00:40:00,
2013-01-24 19:55:00,8.6,1.0,30.56,NE,38,0.0,-999.0,70,-99.99,,,0.00,weatherlink.com 1.10,2013-01-25 00:55:00,
2013-01-24 20:10:00,8.6,0.0,30.55,NE,38,0.0,-999.0,68,-99.99,,,0.00,weatherlink.com 1.10,2013-01-25 01:10:00,
2013-01-24 20:26:00,8.8,0.0,30.55,NE,38,0.0,-999.0,67,-99.99,,,0.00,weatherlink.com 1.10,2013-01-25 01:26:00,
2013-01-24 20:41:00,9.0,0.0,30.54,NE,38,0.0,-999.0,67,-99.99,,,0.00,weatherlink.com 1.10,2013-01-25 01:41:00,
2013-01-24 20:56:00,9.1,0.0,30.54,NE,38,2.0,-999.0,67,-99.99,,,0.00,weatherlink.com 1.10,2013-01-25 01:56:00,
2013-01-24 21:11:00,9.2,0.0,30.54,NE,38,0.0,-999.0,66,-99.99,,,0.00,weatherlink.com 1.10,2013-01-25 02:11:00,
2013-01-24 21:26:00,9.3,0.0,30.54,NE,38,0.0,-999.0,66,-99.99,,,0.00,weatherlink.com 1.10,2013-01-25 02:26:00,
2013-01-24 21:42:00,9.6,0.0,30.53,SE,128,5.0,-999.0,66,-99.99,,,0.00,weatherlink.com 1.10,2013-01-25 02:42:00,
2013-01-24 21:56:00,9.8,1.0,30.53,SE,132,0.0,-999.0,66,-99.99,,,0.00,weatherlink.com 1.10,2013-01-25 02:56:00,
2013-01-24 22:11:00,9.9,1.0,30.54,SE,132,0.0,-999.0,67,-99.99,,,0.00,weatherlink.com 1.10,2013-01-25 03:11:00,
2013-01-24 22:26:00,10.0,1.0,30.53,SE,132,4.0,-999.0,66,-99.99,,,0.00,weatherlink.com 1.10,2013-01-25 03:26:00,
2013-01-24 22:41:00,10.1,1.0,30.52,SE,132,0.0,-999.0,66,-99.99,,,0.00,weatherlink.com 1.10,2013-01-25 03:41:00,
2013-01-24 22:56:00,10.4,1.0,30.52,SE,138,2.0,-999.0,66,-99.99,,,0.00,weatherlink.com 1.10,2013-01-25 03:56:00,
2013-01-24 23:11:00,10.8,1.0,30.52,SE,138,0.0,-999.0,65,-99.99,,,0.00,weatherlink.com 1.10,2013-01-25 04:11:00,
2013-01-24 23:26:00,10.8,1.0,30.52,SE,138,0.0,-999.0,66,-99.99,,,0.00,weatherlink.com 1.10,2013-01-25 04:26:00,
2013-01-24 23:41:00,11.1,2.0,30.51,SSE,153,2.0,-999.0,67,-99.99,,,0.00,weatherlink.com 1.10,2013-01-25 04:41:00,
2013-01-24 23:57:00,11.3,2.0,30.52,SSE,153,4.0,-999.0,67,-99.99,,,0.00,weatherlink.com 1.10,2013-01-25 04:57:00,